Time;durP1;ratioP1;P1;durP2;ratioP2;P2;SDS_P1;SDS_P2;PMS_P1;PMS_P2;Temp;Humidity;BMP_temperature;BMP_pressure;BME280_temperature;BME280_humidity;BME280_pressure;Samples;Min_cycle;Max_cycle;Signal;HPM_P1;HPM_P2
2022/04/17 00:02:03;;;;;;;10.43;8.60;;;;;;;;;;5015772;28;20271;-67
2022/04/17 00:04:29;;;;;;;10.20;8.50;;;;;;;;;;5033905;28;20624;-66
2022/04/17 00:06:56;;;;;;;13.17;9.60;;;;;;;;;;5033977;28;20183;-68
2022/04/17 00:09:22;;;;;;;11.87;8.27;;;;;;;;;;5015538;28;20209;-66
2022/04/17 00:11:48;;;;;;;14.67;8.73;;;;;;;;;;5033615;28;20183;-66
2022/04/17 00:14:14;;;;;;;11.63;9.07;;;;;;;;;;5033253;28;20203;-67
2022/04/17 00:16:40;;;;;;;12.30;9.47;;;;;;;;;;5033455;28;20179;-67
2022/04/17 00:19:09;;;;;;;12.67;9.10;;;;;;;;;;5015556;28;20686;-66
2022/04/17 00:21:35;;;;;;;12.37;8.73;;;;;;;;;;5033615;28;20179;-66
2022/04/17 00:24:01;;;;;;;13.90;9.30;;;;;;;;;;5015619;28;20734;-66
2022/04/17 00:26:27;;;;;;;12.23;9.33;;;;;;;;;;5033237;28;20244;-64
2022/04/17 00:28:53;;;;;;;13.10;9.23;;;;;;;;;;5033451;28;20205;-66
2022/04/17 00:31:19;;;;;;;13.47;9.70;;;;;;;;;;5015594;28;20187;-67
2022/04/17 00:33:45;;;;;;;12.50;9.77;;;;;;;;;;5033473;28;20282;-66
2022/04/17 00:36:11;;;;;;;11.30;8.73;;;;;;;;;;5033199;28;20210;-67
2022/04/17 00:38:37;;;;;;;13.40;9.93;;;;;;;;;;5033236;28;20195;-67
2022/04/17 00:41:02;;;;;;;13.50;10.10;;;;;;;;;;5057764;22;20226;-64
2022/04/17 00:43:30;;;;;;;13.43;9.40;;;;;;;;;;5034599;28;20195;-64
2022/04/17 00:45:56;;;;;;;15.10;10.33;;;;;;;;;;5033082;28;20187;-65
2022/04/17 00:48:22;;;;;;;17.17;10.80;;;;;;;;;;5034912;28;20186;-64
2022/04/17 00:50:50;;;;;;;14.50;10.33;;;;;;;;;;5034616;28;20187;-63
2022/04/17 00:53:16;;;;;;;16.80;10.70;;;;;;;;;;5033102;28;20189;-63
2022/04/17 00:55:42;;;;;;;13.00;9.97;;;;;;;;;;5034693;28;20171;-65
2022/04/17 00:58:08;;;;;;;13.97;9.80;;;;;;;;;;5033240;28;20230;-65
2022/04/17 01:00:34;;;;;;;14.87;9.87;;;;;;;;;;5036888;28;20202;-65
2022/04/17 01:03:01;;;;;;;15.87;10.70;;;;;;;;;;5037022;28;20202;-65
2022/04/17 01:05:27;;;;;;;14.90;9.93;;;;;;;;;;5036756;28;20190;-65
2022/04/17 01:07:53;;;;;;;12.43;9.77;;;;;;;;;;5037948;28;20175;-65
2022/04/17 01:10:20;;;;;;;13.93;11.00;;;;;;;;;;5037893;28;20175;-64
2022/04/17 01:12:47;;;;;;;14.10;10.57;;;;;;;;;;5036338;28;20213;-64
2022/04/17 01:15:13;;;;;;;15.17;10.50;;;;;;;;;;5036624;28;20553;-64
2022/04/17 01:17:39;;;;;;;14.37;10.93;;;;;;;;;;5038158;28;20178;-64
2022/04/17 01:20:06;;;;;;;12.90;10.10;;;;;;;;;;5036767;28;20651;-64
2022/04/17 01:22:32;;;;;;;13.13;10.83;;;;;;;;;;5037775;28;20210;-64
2022/04/17 01:27:43;;;;;;;13.37;10.93;;;;;;;;;;5037951;28;20229;-64
2022/04/17 01:30:10;;;;;;;14.03;11.07;;;;;;;;;;5036276;28;20271;-64
2022/04/17 01:32:36;;;;;;;13.03;10.07;;;;;;;;;;5036067;28;20699;-65
2022/04/17 01:35:02;;;;;;;15.00;10.30;;;;;;;;;;5037886;28;20195;-65
2022/04/17 01:37:28;;;;;;;12.93;10.80;;;;;;;;;;5036542;28;20179;-65
2022/04/17 01:39:54;;;;;;;14.77;10.10;;;;;;;;;;5036182;28;20225;-64
2022/04/17 01:42:20;;;;;;;11.87;10.00;;;;;;;;;;5036240;28;20211;-66
2022/04/17 01:44:46;;;;;;;12.00;9.50;;;;;;;;;;5037169;28;20232;-66
2022/04/17 01:47:12;;;;;;;12.67;9.40;;;;;;;;;;5037859;28;20180;-65
2022/04/17 01:49:38;;;;;;;10.67;9.00;;;;;;;;;;5037233;28;20190;-66
2022/04/17 01:52:04;;;;;;;11.60;9.40;;;;;;;;;;5037551;28;20564;-63
2022/04/17 01:54:32;;;;;;;11.60;9.00;;;;;;;;;;5037115;28;20256;-64
2022/04/17 01:56:58;;;;;;;12.23;9.07;;;;;;;;;;5037008;28;20646;-65
2022/04/17 01:59:24;;;;;;;11.40;9.30;;;;;;;;;;5037430;28;20179;-64
2022/04/17 02:01:50;;;;;;;12.57;9.20;;;;;;;;;;5037471;28;20218;-65
2022/04/17 02:04:17;;;;;;;12.73;9.27;;;;;;;;;;5038163;28;20202;-64
2022/04/17 02:06:43;;;;;;;13.00;9.87;;;;;;;;;;5037459;28;20185;-64
2022/04/17 02:09:11;;;;;;;13.60;10.60;;;;;;;;;;5035938;28;20183;-64
2022/04/17 02:11:38;;;;;;;18.80;10.67;;;;;;;;;;5036187;28;20286;-65
2022/04/17 02:14:04;;;;;;;14.47;10.30;;;;;;;;;;5036647;28;20191;-65
2022/04/17 02:16:31;;;;;;;15.90;11.87;;;;;;;;;;5036272;28;20183;-64
2022/04/17 02:18:57;;;;;;;15.63;10.67;;;;;;;;;;5036905;28;20236;-65
2022/04/17 02:21:23;;;;;;;15.97;10.43;;;;;;;;;;5037153;28;20195;-65
2022/04/17 02:23:49;;;;;;;16.53;10.87;;;;;;;;;;5037202;28;20702;-63
2022/04/17 02:26:19;;;;;;;13.80;8.53;;;;;;;;;;5037359;28;20277;-64
2022/04/17 02:28:46;;;;;;;11.70;8.37;;;;;;;;;;5037339;28;20551;-64
2022/04/17 02:31:12;;;;;;;14.33;9.30;;;;;;;;;;5036862;28;20206;-64
2022/04/17 02:33:38;;;;;;;13.27;9.13;;;;;;;;;;5035640;28;20207;-64
2022/04/17 02:36:05;;;;;;;13.13;8.30;;;;;;;;;;5036400;28;20183;-65
2022/04/17 02:38:31;;;;;;;14.17;8.60;;;;;;;;;;5036761;28;20177;-65
2022/04/17 02:40:58;;;;;;;11.00;8.37;;;;;;;;;;5036380;28;20229;-65
2022/04/17 02:43:24;;;;;;;11.17;7.80;;;;;;;;;;5035163;28;20203;-65
2022/04/17 02:45:53;;;;;;;11.50;8.40;;;;;;;;;;5036834;28;20631;-65
2022/04/17 02:48:20;;;;;;;9.50;7.33;;;;;;;;;;5035911;28;20195;-66
2022/04/17 02:50:46;;;;;;;9.27;6.93;;;;;;;;;;5036097;28;20182;-65
2022/04/17 02:53:12;;;;;;;10.70;7.07;;;;;;;;;;5034849;28;20176;-65
2022/04/17 02:55:38;;;;;;;9.60;7.20;;;;;;;;;;5034950;28;20210;-63
2022/04/17 02:58:04;;;;;;;10.90;7.90;;;;;;;;;;5036449;28;20183;-65
2022/04/17 03:00:31;;;;;;;9.87;7.87;;;;;;;;;;5036136;28;20186;-65
2022/04/17 03:05:42;;;;;;;10.57;7.37;;;;;;;;;;5037751;28;20178;-64
2022/04/17 03:08:09;;;;;;;14.27;10.10;;;;;;;;;;5037886;28;20235;-66
2022/04/17 03:10:39;;;;;;;18.70;10.03;;;;;;;;;;5037524;28;20175;-65
2022/04/17 03:13:05;;;;;;;19.53;9.87;;;;;;;;;;5037135;28;20207;-65
2022/04/17 03:15:32;;;;;;;12.30;9.53;;;;;;;;;;5037597;28;20261;-66
2022/04/17 03:17:59;;;;;;;13.63;9.67;;;;;;;;;;5035683;28;20179;-66
2022/04/17 03:20:25;;;;;;;10.90;8.17;;;;;;;;;;5036063;28;20294;-66
2022/04/17 03:22:51;;;;;;;11.50;8.63;;;;;;;;;;5035143;28;20221;-65
2022/04/17 03:25:17;;;;;;;9.63;7.43;;;;;;;;;;5034277;28;20187;-65
2022/04/17 03:27:46;;;;;;;12.70;8.80;;;;;;;;;;5034193;28;20179;-66
2022/04/17 03:30:12;;;;;;;11.67;7.70;;;;;;;;;;5034795;28;20643;-64
2022/04/17 03:32:38;;;;;;;12.53;8.57;;;;;;;;;;5035136;28;20206;-65
2022/04/17 03:35:04;;;;;;;9.40;7.20;;;;;;;;;;5035838;28;20253;-66
2022/04/17 03:37:30;;;;;;;9.87;7.63;;;;;;;;;;5035415;28;20194;-65
2022/04/17 03:39:56;;;;;;;10.70;7.43;;;;;;;;;;5035325;28;20639;-65
2022/04/17 03:42:22;;;;;;;10.73;7.50;;;;;;;;;;5035076;28;20683;-65
2022/04/17 03:44:49;;;;;;;11.30;7.80;;;;;;;;;;5036142;28;20257;-65
2022/04/17 03:47:15;;;;;;;11.30;7.07;;;;;;;;;;5036711;28;20179;-65
2022/04/17 03:49:41;;;;;;;8.37;6.27;;;;;;;;;;5040106;28;20422;-65
2022/04/17 03:52:07;;;;;;;10.83;6.30;;;;;;;;;;5043696;28;20202;-65
2022/04/17 03:54:33;;;;;;;9.90;5.40;;;;;;;;;;5043878;28;20257;-66
2022/04/17 03:56:59;;;;;;;9.67;6.00;;;;;;;;;;5042001;28;20183;-65
2022/04/17 03:59:25;;;;;;;11.40;6.10;;;;;;;;;;5035526;28;20242;-65
2022/04/17 04:01:50;;;;;;;8.30;5.80;;;;;;;;;;5034102;28;20199;-65
2022/04/17 04:04:17;;;;;;;9.77;6.40;;;;;;;;;;5035442;28;20183;-64
2022/04/17 04:06:43;;;;;;;16.10;5.83;;;;;;;;;;5033403;28;20183;-66
2022/04/17 04:09:09;;;;;;;10.70;6.27;;;;;;;;;;5034796;28;20183;-65
2022/04/17 04:11:35;;;;;;;10.37;6.00;;;;;;;;;;5034627;28;20297;-65
2022/04/17 04:14:03;;;;;;;12.13;6.40;;;;;;;;;;5033464;28;20226;-65
2022/04/17 04:16:29;;;;;;;9.67;6.30;;;;;;;;;;5035189;28;20225;-65
2022/04/17 04:18:55;;;;;;;9.40;6.17;;;;;;;;;;5034260;28;20229;-64
2022/04/17 04:21:21;;;;;;;9.13;5.87;;;;;;;;;;5034685;28;20282;-64
2022/04/17 04:23:48;;;;;;;9.30;6.13;;;;;;;;;;5033295;28;20188;-64
2022/04/17 04:26:14;;;;;;;9.07;5.90;;;;;;;;;;5034793;28;20201;-65
2022/04/17 04:28:40;;;;;;;9.67;5.90;;;;;;;;;;5034966;28;20183;-66
2022/04/17 04:31:13;;;;;;;8.83;5.80;;;;;;;;;;5033307;28;20294;-65
2022/04/17 04:33:40;;;;;;;12.17;5.90;;;;;;;;;;5036008;28;20207;-64
2022/04/17 04:36:07;;;;;;;6.80;5.50;;;;;;;;;;5038954;28;20600;-63
2022/04/17 04:38:33;;;;;;;8.57;5.33;;;;;;;;;;5038515;28;20179;-63
2022/04/17 04:41:00;;;;;;;6.90;5.67;;;;;;;;;;5038447;28;20286;-64
2022/04/17 04:43:26;;;;;;;8.67;5.07;;;;;;;;;;5039272;28;20390;-64
2022/04/17 04:46:07;;;;;;;6.10;4.90;;;;;;;;;;5038901;28;20527;-64
2022/04/17 04:51:19;;;;;;;5.17;4.27;;;;;;;;;;5041813;28;20206;-63
2022/04/17 04:53:45;;;;;;;5.87;4.43;;;;;;;;;;5039553;28;20206;-63
2022/04/17 04:56:13;;;;;;;6.20;4.70;;;;;;;;;;5040703;28;20553;-63
2022/04/17 04:58:38;;;;;;;5.43;4.30;;;;;;;;;;5039855;28;20179;-63
2022/04/17 05:01:04;;;;;;;6.83;4.53;;;;;;;;;;5038125;28;20198;-68
2022/04/17 05:03:31;;;;;;;7.93;5.20;;;;;;;;;;5038152;28;20179;-63
2022/04/17 05:05:57;;;;;;;5.90;4.70;;;;;;;;;;5038252;28;20171;-64
2022/04/17 05:08:23;;;;;;;9.43;4.53;;;;;;;;;;5038412;28;20309;-64
2022/04/17 05:10:49;;;;;;;7.10;5.13;;;;;;;;;;5037244;28;20672;-63
2022/04/17 05:13:15;;;;;;;5.67;4.20;;;;;;;;;;5038659;28;20278;-64
2022/04/17 05:15:41;;;;;;;8.10;4.80;;;;;;;;;;5037084;28;20213;-64
2022/04/17 05:18:07;;;;;;;6.90;4.30;;;;;;;;;;5037011;28;20639;-64
2022/04/17 05:20:34;;;;;;;6.47;4.60;;;;;;;;;;5038657;28;20172;-66
2022/04/17 05:26:05;;;;;;;4.63;4.00;;;;;;;;;;5016174;28;20183;-64
2022/04/17 05:28:31;;;;;;;7.10;4.20;;;;;;;;;;5016631;28;20669;-68
2022/04/17 05:31:01;;;;;;;5.93;4.47;;;;;;;;;;5015554;28;20187;-66
2022/04/17 05:33:27;;;;;;;4.77;4.17;;;;;;;;;;5037567;28;20249;-66
2022/04/17 05:35:53;;;;;;;4.90;4.20;;;;;;;;;;5037677;28;20175;-68
2022/04/17 05:38:23;;;;;;;6.33;4.40;;;;;;;;;;5037974;28;20258;-70
2022/04/17 05:40:50;;;;;;;5.43;3.90;;;;;;;;;;5037543;28;20198;-65
2022/04/17 05:43:16;;;;;;;4.50;3.47;;;;;;;;;;5038275;28;20244;-65
2022/04/17 05:45:43;;;;;;;6.30;4.00;;;;;;;;;;5037098;28;20183;-66
2022/04/17 05:48:09;;;;;;;5.50;3.70;;;;;;;;;;5037534;28;20268;-66
2022/04/17 05:50:36;;;;;;;5.50;3.37;;;;;;;;;;5035918;28;20623;-66
2022/04/17 05:53:02;;;;;;;5.70;3.37;;;;;;;;;;5036115;28;20202;-65
2022/04/17 05:55:28;;;;;;;4.43;3.37;;;;;;;;;;5035838;28;20211;-65
2022/04/17 05:57:54;;;;;;;3.57;2.87;;;;;;;;;;5037230;28;20184;-66
2022/04/17 06:00:20;;;;;;;9.07;3.30;;;;;;;;;;5035639;28;20221;-64
2022/04/17 06:02:46;;;;;;;5.03;3.13;;;;;;;;;;5036745;28;20195;-63
2022/04/17 06:05:13;;;;;;;4.30;3.30;;;;;;;;;;5036204;28;20341;-65
2022/04/17 06:07:39;;;;;;;7.27;3.07;;;;;;;;;;5037142;28;20187;-64
2022/04/17 06:10:06;;;;;;;4.27;2.83;;;;;;;;;;5037520;28;20313;-65
2022/04/17 06:12:32;;;;;;;6.33;3.13;;;;;;;;;;5036939;28;20235;-64
2022/04/17 06:14:59;;;;;;;4.00;2.80;;;;;;;;;;5035745;28;20375;-65
2022/04/17 06:17:25;;;;;;;3.83;3.10;;;;;;;;;;5036753;28;20171;-65
2022/04/17 06:19:51;;;;;;;3.17;2.87;;;;;;;;;;5037101;28;20171;-66
2022/04/17 06:22:18;;;;;;;3.73;2.73;;;;;;;;;;5036858;28;20191;-65
2022/04/17 06:24:44;;;;;;;5.47;3.00;;;;;;;;;;5037053;28;20230;-65
2022/04/17 06:27:10;;;;;;;3.83;2.93;;;;;;;;;;5036818;28;20187;-65
2022/04/17 06:29:36;;;;;;;3.20;2.83;;;;;;;;;;5036569;28;20189;-66
2022/04/17 06:32:02;;;;;;;3.57;2.53;;;;;;;;;;5036812;28;20282;-64
2022/04/17 06:34:28;;;;;;;4.70;2.90;;;;;;;;;;5036616;28;20208;-65
2022/04/17 06:36:54;;;;;;;4.07;2.63;;;;;;;;;;5036326;28;20242;-65
2022/04/17 06:39:20;;;;;;;5.57;2.93;;;;;;;;;;5036624;28;20175;-66
2022/04/17 06:41:46;;;;;;;8.00;2.93;;;;;;;;;;5036528;28;20218;-65
2022/04/17 06:44:12;;;;;;;3.47;2.47;;;;;;;;;;5035942;28;20215;-65
2022/04/17 06:46:41;;;;;;;3.50;2.57;;;;;;;;;;5034795;28;20266;-65
2022/04/17 06:49:07;;;;;;;2.80;2.27;;;;;;;;;;5036227;28;20179;-65
2022/04/17 06:51:33;;;;;;;2.87;2.50;;;;;;;;;;5034310;28;20624;-65
2022/04/17 06:53:59;;;;;;;3.73;2.90;;;;;;;;;;5035875;28;20291;-66
2022/04/17 06:56:25;;;;;;;5.83;3.00;;;;;;;;;;5035430;28;20211;-66
2022/04/17 06:58:51;;;;;;;3.87;2.77;;;;;;;;;;5035565;28;20266;-66
2022/04/17 07:01:20;;;;;;;3.80;2.50;;;;;;;;;;5035140;28;20207;-66
2022/04/17 07:03:47;;;;;;;4.57;3.27;;;;;;;;;;5035782;28;20594;-65
2022/04/17 07:06:13;;;;;;;10.00;5.67;;;;;;;;;;5035458;28;20183;-65
2022/04/17 07:08:39;;;;;;;17.93;7.83;;;;;;;;;;5035786;28;20189;-65
2022/04/17 07:11:05;;;;;;;6.57;3.67;;;;;;;;;;5035713;28;20257;-65
2022/04/17 07:13:31;;;;;;;4.63;2.70;;;;;;;;;;5035390;28;20576;-65
2022/04/17 07:15:57;;;;;;;3.20;2.67;;;;;;;;;;5035782;28;20182;-64
2022/04/17 07:18:23;;;;;;;2.67;2.40;;;;;;;;;;5034133;28;20257;-64
2022/04/17 07:20:49;;;;;;;4.00;2.60;;;;;;;;;;5036255;28;20179;-65
2022/04/17 07:23:15;;;;;;;4.77;3.37;;;;;;;;;;5035604;28;20529;-64
2022/04/17 07:25:41;;;;;;;4.23;3.30;;;;;;;;;;5035327;28;20639;-65
2022/04/17 07:28:14;;;;;;;7.33;3.10;;;;;;;;;;5035421;28;20191;-65
2022/04/17 07:30:40;;;;;;;4.80;2.97;;;;;;;;;;5034092;28;20563;-63
2022/04/17 07:33:06;;;;;;;5.03;3.00;;;;;;;;;;5035078;28;20242;-65
2022/04/17 07:35:32;;;;;;;5.83;2.93;;;;;;;;;;5035322;28;20744;-65
2022/04/17 07:37:59;;;;;;;3.13;2.50;;;;;;;;;;5035068;28;20639;-65
2022/04/17 07:40:29;;;;;;;3.60;2.97;;;;;;;;;;5035063;28;20197;-65
2022/04/17 07:42:56;;;;;;;3.83;2.70;;;;;;;;;;5035091;28;20210;-65
2022/04/17 07:45:22;;;;;;;5.57;2.63;;;;;;;;;;5035093;28;20186;-65
2022/04/17 07:47:49;;;;;;;2.97;2.50;;;;;;;;;;5034803;28;20195;-65
2022/04/17 07:50:17;;;;;;;4.37;2.40;;;;;;;;;;5035061;28;20182;-64
2022/04/17 07:52:43;;;;;;;3.20;2.50;;;;;;;;;;5033859;28;20209;-65
2022/04/17 07:55:11;;;;;;;5.47;2.30;;;;;;;;;;5035282;28;20195;-67
2022/04/17 08:00:22;;;;;;;3.33;2.40;;;;;;;;;;5034828;28;20170;-65
2022/04/17 08:03:06;;;;;;;3.23;2.17;;;;;;;;;;5034633;28;20442;-65
2022/04/17 08:05:34;;;;;;;5.83;2.90;;;;;;;;;;5033211;28;20675;-65
2022/04/17 08:08:00;;;;;;;3.07;2.60;;;;;;;;;;5033722;28;20179;-65
2022/04/17 08:10:26;;;;;;;3.47;2.37;;;;;;;;;;5059558;22;20233;-65
2022/04/17 08:12:52;;;;;;;2.53;2.33;;;;;;;;;;5032429;28;20258;-65
2022/04/17 08:15:18;;;;;;;4.20;2.60;;;;;;;;;;5033594;28;20202;-65
2022/04/17 08:17:44;;;;;;;5.47;2.80;;;;;;;;;;5034066;28;20635;-65
2022/04/17 08:20:10;;;;;;;2.70;2.23;;;;;;;;;;5033463;28;20519;-65
2022/04/17 08:22:36;;;;;;;2.47;2.20;;;;;;;;;;5032007;28;20705;-64
2022/04/17 08:25:03;;;;;;;2.20;1.90;;;;;;;;;;5032051;28;20187;-64
2022/04/17 08:27:29;;;;;;;3.23;2.40;;;;;;;;;;5033673;28;20175;-65
2022/04/17 08:29:55;;;;;;;2.13;1.93;;;;;;;;;;5031758;28;20189;-65
2022/04/17 08:32:21;;;;;;;3.03;2.47;;;;;;;;;;5032089;28;20194;-65
2022/04/17 08:34:47;;;;;;;3.30;2.20;;;;;;;;;;5031912;28;20206;-65
2022/04/17 08:37:13;;;;;;;2.60;2.40;;;;;;;;;;5031943;28;20179;-64
2022/04/17 08:39:38;;;;;;;3.93;2.37;;;;;;;;;;5033176;28;20175;-63
2022/04/17 08:42:06;;;;;;;2.50;2.13;;;;;;;;;;5031875;28;20199;-65
2022/04/17 08:44:32;;;;;;;2.70;2.23;;;;;;;;;;5033215;28;20202;-65
2022/04/17 08:46:58;;;;;;;3.27;2.50;;;;;;;;;;5033104;28;20183;-64
2022/04/17 08:49:25;;;;;;;3.80;2.07;;;;;;;;;;5033319;28;20225;-65
2022/04/17 08:51:53;;;;;;;5.00;2.30;;;;;;;;;;5033243;28;20206;-64
2022/04/17 08:54:20;;;;;;;3.27;2.40;;;;;;;;;;5033522;28;20240;-64
2022/04/17 08:56:46;;;;;;;3.97;2.27;;;;;;;;;;5033312;28;20679;-64
2022/04/17 08:59:13;;;;;;;2.20;2.00;;;;;;;;;;5031785;28;20573;-64
2022/04/17 09:01:39;;;;;;;3.07;2.27;;;;;;;;;;5033786;28;20195;-62
2022/04/17 09:04:05;;;;;;;3.23;2.43;;;;;;;;;;5033937;28;20179;-63
2022/04/17 09:06:31;;;;;;;3.83;2.30;;;;;;;;;;5032759;28;20190;-63
2022/04/17 09:08:58;;;;;;;2.60;2.40;;;;;;;;;;5033526;28;20187;-64
2022/04/17 09:11:31;;;;;;;2.63;2.20;;;;;;;;;;5033903;28;20219;-63
2022/04/17 09:14:01;;;;;;;2.87;2.63;;;;;;;;;;5034127;28;20268;-63
2022/04/17 09:16:31;;;;;;;2.83;2.33;;;;;;;;;;5034209;28;20164;-63
2022/04/17 09:18:58;;;;;;;2.23;1.97;;;;;;;;;;5034256;28;20206;-66
2022/04/17 09:21:33;;;;;;;3.00;2.23;;;;;;;;;;5037250;28;20195;-63
2022/04/17 09:24:19;;;;;;;3.07;2.40;;;;;;;;;;5037684;28;20654;-62
2022/04/17 09:26:58;;;;;;;6.43;2.50;;;;;;;;;;5038237;28;20265;-63
2022/04/17 09:29:28;;;;;;;2.77;2.20;;;;;;;;;;5035978;28;20186;-64
2022/04/17 09:32:04;;;;;;;2.47;1.93;;;;;;;;;;5038179;28;20213;-63
2022/04/17 09:34:41;;;;;;;3.67;2.37;;;;;;;;;;5036708;28;20329;-64
2022/04/17 09:37:11;;;;;;;2.90;2.47;;;;;;;;;;5036920;28;20190;-64
2022/04/17 09:39:37;;;;;;;2.30;2.10;;;;;;;;;;5036392;28;20271;-64
2022/04/17 09:42:03;;;;;;;2.80;2.20;;;;;;;;;;5036404;28;20234;-63
2022/04/17 09:44:55;;;;;;;5.87;2.63;;;;;;;;;;5035151;28;20190;-63
2022/04/17 09:47:25;;;;;;;4.27;2.47;;;;;;;;;;5036326;28;20204;-63
2022/04/17 09:49:54;;;;;;;4.27;2.30;;;;;;;;;;5036317;28;20189;-64
2022/04/17 09:52:22;;;;;;;4.30;2.17;;;;;;;;;;5036298;28;20210;-64
2022/04/17 09:54:48;;;;;;;5.50;2.30;;;;;;;;;;5034745;28;20211;-64
2022/04/17 09:57:18;;;;;;;3.27;2.30;;;;;;;;;;5036330;28;20175;-64
2022/04/17 09:59:44;;;;;;;3.80;2.73;;;;;;;;;;5035180;28;20515;-64
2022/04/17 10:02:12;;;;;;;3.10;2.00;;;;;;;;;;5035854;28;20242;-64
2022/04/17 10:04:39;;;;;;;2.10;1.90;;;;;;;;;;5034393;28;20274;-63
2022/04/17 10:07:05;;;;;;;3.77;2.07;;;;;;;;;;5035902;28;20186;-63
2022/04/17 10:09:32;;;;;;;2.90;1.97;;;;;;;;;;5035487;28;20179;-64
2022/04/17 10:12:00;;;;;;;3.30;1.90;;;;;;;;;;5035453;28;20298;-63
2022/04/17 10:14:28;;;;;;;2.17;2.00;;;;;;;;;;5035577;28;20732;-64
2022/04/17 10:16:56;;;;;;;3.17;2.00;;;;;;;;;;5036036;28;20255;-63
2022/04/17 10:19:25;;;;;;;5.67;2.10;;;;;;;;;;5035491;28;20197;-64
2022/04/17 10:21:51;;;;;;;2.63;1.97;;;;;;;;;;5035260;28;20296;-64
2022/04/17 10:24:18;;;;;;;2.27;2.00;;;;;;;;;;5034862;28;20526;-63
2022/04/17 10:26:45;;;;;;;3.17;1.77;;;;;;;;;;5035833;28;20179;-64
2022/04/17 10:29:21;;;;;;;1.97;1.77;;;;;;;;;;5035299;28;20558;-63
2022/04/17 10:32:06;;;;;;;2.10;1.97;;;;;;;;;;5034635;28;20210;-63
2022/04/17 10:35:04;;;;;;;3.20;2.20;;;;;;;;;;5035170;28;20203;-63
2022/04/17 10:37:56;;;;;;;4.70;2.00;;;;;;;;;;5002212;28;20190;-64
2022/04/17 10:40:22;;;;;;;3.23;2.17;;;;;;;;;;5033890;28;20665;-63
2022/04/17 10:42:55;;;;;;;3.60;2.03;;;;;;;;;;5035446;28;20183;-64
2022/04/17 10:45:22;;;;;;;2.37;2.00;;;;;;;;;;5035162;28;20194;-63
2022/04/17 10:48:09;;;;;;;3.33;2.17;;;;;;;;;;5035097;28;20201;-64
2022/04/17 10:50:41;;;;;;;2.40;2.20;;;;;;;;;;5035278;28;20191;-64
2022/04/17 10:53:26;;;;;;;4.40;2.33;;;;;;;;;;5034144;28;20183;-63
2022/04/17 10:56:08;;;;;;;2.70;2.27;;;;;;;;;;5035207;28;20286;-64
2022/04/17 10:58:38;;;;;;;2.37;2.17;;;;;;;;;;5033564;28;20180;-64
2022/04/17 11:01:04;;;;;;;2.90;2.20;;;;;;;;;;5033605;28;20210;-64
2022/04/17 11:03:34;;;;;;;4.40;2.43;;;;;;;;;;5035120;28;20540;-63
2022/04/17 11:06:20;;;;;;;2.60;1.80;;;;;;;;;;5033393;28;20214;-63
2022/04/17 11:08:48;;;;;;;1.97;1.77;;;;;;;;;;5033485;28;20183;-63
2022/04/17 11:11:14;;;;;;;2.73;2.20;;;;;;;;;;5034668;28;20221;-63
2022/04/17 11:14:00;;;;;;;3.57;2.40;;;;;;;;;;5034700;28;20219;-63
2022/04/17 11:16:27;;;;;;;3.90;2.73;;;;;;;;;;5034498;28;20177;-63
2022/04/17 11:18:54;;;;;;;2.10;1.90;;;;;;;;;;5034384;28;20542;-63
2022/04/17 11:21:23;;;;;;;2.50;1.97;;;;;;;;;;5034448;28;20286;-63
2022/04/17 11:23:49;;;;;;;4.13;2.17;;;;;;;;;;5034785;28;20175;-63
2022/04/17 11:26:15;;;;;;;2.03;1.93;;;;;;;;;;5034479;28;20262;-63
2022/04/17 11:28:41;;;;;;;2.47;2.00;;;;;;;;;;5034439;28;20183;-63
2022/04/17 11:31:08;;;;;;;3.57;2.60;;;;;;;;;;5034122;28;20198;-63
2022/04/17 11:33:34;;;;;;;2.20;2.00;;;;;;;;;;5034425;28;20171;-64
2022/04/17 11:36:00;;;;;;;2.33;2.13;;;;;;;;;;5034318;28;20179;-66
2022/04/17 11:38:26;;;;;;;3.13;2.13;;;;;;;;;;5034199;28;20175;-63
2022/04/17 11:40:52;;;;;;;2.80;2.00;;;;;;;;;;5032793;28;20284;-65
2022/04/17 11:43:19;;;;;;;4.13;2.10;;;;;;;;;;5032776;28;20173;-64
2022/04/17 11:45:46;;;;;;;2.03;1.60;;;;;;;;;;5032715;28;20193;-63
2022/04/17 11:48:13;;;;;;;3.40;2.07;;;;;;;;;;5032754;28;20228;-63
2022/04/17 11:50:40;;;;;;;2.00;1.80;;;;;;;;;;5033809;28;20294;-64
2022/04/17 11:53:09;;;;;;;2.20;1.87;;;;;;;;;;5032576;28;20306;-63
2022/04/17 11:55:36;;;;;;;2.83;1.90;;;;;;;;;;5032708;28;20298;-63
2022/04/17 11:58:03;;;;;;;2.00;1.70;;;;;;;;;;5033778;28;20179;-63
2022/04/17 12:00:30;;;;;;;2.50;1.97;;;;;;;;;;5033741;28;20237;-63
2022/04/17 12:02:59;;;;;;;2.63;1.90;;;;;;;;;;5033798;28;20666;-64
2022/04/17 12:05:26;;;;;;;2.10;1.90;;;;;;;;;;5032426;28;20212;-64
2022/04/17 12:07:56;;;;;;;2.30;1.67;;;;;;;;;;5033635;28;20179;-63
2022/04/17 12:10:23;;;;;;;3.13;2.20;;;;;;;;;;5033600;28;20762;-64
2022/04/17 12:12:49;;;;;;;3.13;2.07;;;;;;;;;;5034173;28;20168;-63
2022/04/17 12:15:15;;;;;;;2.80;1.90;;;;;;;;;;5033410;28;20276;-64
2022/04/17 12:17:42;;;;;;;2.10;1.90;;;;;;;;;;5033800;28;20175;-64
2022/04/17 12:20:15;;;;;;;2.03;1.83;;;;;;;;;;5033512;28;20179;-64
2022/04/17 12:22:42;;;;;;;1.60;1.50;;;;;;;;;;5033721;28;20539;-64
2022/04/17 12:25:19;;;;;;;1.60;1.50;;;;;;;;;;5033451;28;20190;-65
2022/04/17 12:27:52;;;;;;;2.23;1.90;;;;;;;;;;5032223;28;20195;-64
2022/04/17 12:30:19;;;;;;;1.53;1.43;;;;;;;;;;5033255;28;20199;-68
2022/04/17 12:32:46;;;;;;;2.17;1.50;;;;;;;;;;5033520;28;20183;-63
2022/04/17 12:35:15;;;;;;;1.80;1.70;;;;;;;;;;5033173;28;20206;-64
2022/04/17 12:37:41;;;;;;;3.10;2.00;;;;;;;;;;5033300;28;20206;-64
2022/04/17 12:40:08;;;;;;;2.57;1.73;;;;;;;;;;5031929;28;20380;-64
2022/04/17 12:42:34;;;;;;;1.87;1.70;;;;;;;;;;5031968;28;20233;-65
2022/04/17 12:45:00;;;;;;;2.87;1.80;;;;;;;;;;5033510;28;20658;-64
2022/04/17 12:47:26;;;;;;;2.50;1.70;;;;;;;;;;5032052;28;20183;-63
2022/04/17 12:49:58;;;;;;;3.53;1.87;;;;;;;;;;5033447;28;20552;-64
2022/04/17 12:52:24;;;;;;;2.30;1.73;;;;;;;;;;5033485;28;20163;-64
2022/04/17 12:54:50;;;;;;;1.87;1.60;;;;;;;;;;5033143;28;20679;-64
2022/04/17 12:57:20;;;;;;;2.07;1.57;;;;;;;;;;5035714;28;20228;-64
2022/04/17 12:59:50;;;;;;;2.90;1.87;;;;;;;;;;5036943;28;20171;-64
2022/04/17 13:02:16;;;;;;;2.10;1.90;;;;;;;;;;5037156;28;20333;-63
2022/04/17 13:04:44;;;;;;;1.97;1.87;;;;;;;;;;5035869;28;20179;-67
2022/04/17 13:07:16;;;;;;;2.73;1.90;;;;;;;;;;5035761;28;20198;-63
2022/04/17 13:09:52;;;;;;;2.20;2.00;;;;;;;;;;5037262;28;20202;-68
2022/04/17 13:12:31;;;;;;;2.07;1.70;;;;;;;;;;5036616;28;20218;-64
2022/04/17 13:14:57;;;;;;;4.20;2.00;;;;;;;;;;5036951;28;20210;-64
2022/04/17 13:17:23;;;;;;;1.93;1.77;;;;;;;;;;5036983;28;20233;-65
2022/04/17 13:19:49;;;;;;;2.00;1.70;;;;;;;;;;5035639;28;20239;-64
2022/04/17 13:22:15;;;;;;;3.27;1.60;;;;;;;;;;5036477;28;20192;-64
2022/04/17 13:24:44;;;;;;;2.77;1.53;;;;;;;;;;5036361;28;20258;-66
2022/04/17 13:27:10;;;;;;;1.90;1.70;;;;;;;;;;5036309;28;20178;-65
2022/04/17 13:29:36;;;;;;;1.90;1.70;;;;;;;;;;5036204;28;20266;-64
2022/04/17 13:32:03;;;;;;;2.40;1.70;;;;;;;;;;5036511;28;20226;-65
2022/04/17 13:34:33;;;;;;;2.47;1.80;;;;;;;;;;5036039;28;20203;-63
2022/04/17 13:39:43;;;;;;;4.60;1.73;;;;;;;;;;5036685;28;20179;-63
2022/04/17 13:42:09;;;;;;;2.00;1.53;;;;;;;;;;5036165;28;20205;-63
2022/04/17 13:44:38;;;;;;;2.23;1.77;;;;;;;;;;5036010;28;20179;-63
2022/04/17 13:47:04;;;;;;;1.70;1.60;;;;;;;;;;5034496;28;20179;-63
2022/04/17 13:49:30;;;;;;;1.80;1.70;;;;;;;;;;5036077;28;20191;-63
2022/04/17 13:51:56;;;;;;;2.23;1.67;;;;;;;;;;5036031;28;20195;-63
2022/04/17 13:54:22;;;;;;;2.07;1.70;;;;;;;;;;5035008;28;20211;-63
2022/04/17 13:56:48;;;;;;;2.13;1.80;;;;;;;;;;5035089;28;20186;-64
2022/04/17 13:59:14;;;;;;;2.63;1.67;;;;;;;;;;5034597;28;20179;-69
2022/04/17 14:01:40;;;;;;;1.60;1.50;;;;;;;;;;5035744;28;20195;-64
2022/04/17 14:04:06;;;;;;;1.57;1.47;;;;;;;;;;5035553;28;20258;-64
2022/04/17 14:06:32;;;;;;;1.73;1.63;;;;;;;;;;5033053;28;20253;-64
2022/04/17 14:08:59;;;;;;;2.63;1.60;;;;;;;;;;5034527;28;20183;-64
2022/04/17 14:11:25;;;;;;;1.60;1.50;;;;;;;;;;5034822;28;20573;-65
2022/04/17 14:13:51;;;;;;;1.83;1.73;;;;;;;;;;5036337;28;20211;-65
2022/04/17 14:16:17;;;;;;;1.83;1.60;;;;;;;;;;5036098;28;20172;-64
2022/04/17 14:18:43;;;;;;;2.17;1.97;;;;;;;;;;5035644;28;20250;-64
2022/04/17 14:21:09;;;;;;;1.50;1.40;;;;;;;;;;5036506;28;20203;-64
2022/04/17 14:23:35;;;;;;;2.43;1.90;;;;;;;;;;5036139;28;20180;-65
2022/04/17 14:26:01;;;;;;;1.77;1.50;;;;;;;;;;5034373;28;20190;-64
2022/04/17 14:28:27;;;;;;;1.80;1.70;;;;;;;;;;5034449;28;20183;-65
2022/04/17 14:30:53;;;;;;;1.90;1.60;;;;;;;;;;5034251;28;20206;-64
2022/04/17 14:33:19;;;;;;;1.63;1.50;;;;;;;;;;5034283;28;20352;-65
2022/04/17 14:35:45;;;;;;;1.70;1.60;;;;;;;;;;5034285;28;20310;-64
2022/04/17 14:38:11;;;;;;;3.00;1.50;;;;;;;;;;5035329;28;20676;-64
2022/04/17 14:40:37;;;;;;;2.40;1.73;;;;;;;;;;5034034;28;20580;-65
2022/04/17 14:43:03;;;;;;;2.77;1.83;;;;;;;;;;5035246;28;20184;-65
2022/04/17 14:45:29;;;;;;;5.70;1.90;;;;;;;;;;5034081;28;20202;-65
2022/04/17 14:47:55;;;;;;;2.03;1.70;;;;;;;;;;5035327;28;20673;-64
2022/04/17 14:50:22;;;;;;;1.50;1.40;;;;;;;;;;5033684;28;20203;-70
2022/04/17 14:52:49;;;;;;;2.03;1.60;;;;;;;;;;5033796;28;20183;-64
2022/04/17 14:55:15;;;;;;;1.80;1.70;;;;;;;;;;5034954;28;20239;-65
2022/04/17 14:57:41;;;;;;;2.03;1.50;;;;;;;;;;5034964;28;20278;-65